1CA4 weather

Aha-Quin Airport
Blythe, California, United States

Public forecast

Using degrees Fahrenheit for public forecast. Weather courtesy of forecast.io.

METAR (pilot weather report)

Closest report is Blythe Airport, 17.8 nm (32.9 km) SSW. Retrieved 2019/06/26 00:52 UTC (45 minutes ago):

KBLH 260052Z AUTO 17013KT 10SM CLR 38/03 A2968 RMK AO2 SLP045 T03780033

TAF (pilot weather forecast)

Forecast is more than 12 hours old.

Closest forecast is Blythe Airport, 17.8 nm (32.9 km) SSW. Retrieved 2019/06/25 00:22 UTC (1 day ago):

TAF KBLH 252320Z 2600/2624 19015G24KT P6SM BKN250 FM260200 20012KT P6SM FEW250 FM261000 17010KT P6SM SKC FM261800 18012G20KT P6SM SKC